sensor_id;sensor_type;location;lat;lon;timestamp;P1;durP1;ratioP1;P2;durP2;ratioP2
21206;SDS011;10761;48.532;8.026;2023-07-09T00:01:13;8.18;;;3.30;;
21206;SDS011;10761;48.532;8.026;2023-07-09T00:03:42;4.57;;;3.47;;
21206;SDS011;10761;48.532;8.026;2023-07-09T00:06:08;8.43;;;3.63;;
21206;SDS011;10761;48.532;8.026;2023-07-09T00:08:34;5.30;;;3.22;;
21206;SDS011;10761;48.532;8.026;2023-07-09T00:11:09;5.30;;;3.10;;
21206;SDS011;10761;48.532;8.026;2023-07-09T00:13:34;4.68;;;3.20;;
21206;SDS011;10761;48.532;8.026;2023-07-09T00:16:00;6.63;;;3.33;;
21206;SDS011;10761;48.532;8.026;2023-07-09T00:18:29;6.85;;;3.10;;
21206;SDS011;10761;48.532;8.026;2023-07-09T00:20:55;5.93;;;3.05;;
21206;SDS011;10761;48.532;8.026;2023-07-09T00:23:20;7.07;;;3.03;;
21206;SDS011;10761;48.532;8.026;2023-07-09T00:25:46;4.63;;;2.75;;
21206;SDS011;10761;48.532;8.026;2023-07-09T00:28:16;5.63;;;3.58;;
21206;SDS011;10761;48.532;8.026;2023-07-09T00:30:46;7.03;;;3.33;;
21206;SDS011;10761;48.532;8.026;2023-07-09T00:33:16;7.72;;;3.45;;
21206;SDS011;10761;48.532;8.026;2023-07-09T00:35:46;6.70;;;3.38;;
21206;SDS011;10761;48.532;8.026;2023-07-09T00:38:23;5.65;;;3.20;;
21206;SDS011;10761;48.532;8.026;2023-07-09T00:41:02;8.77;;;3.60;;
21206;SDS011;10761;48.532;8.026;2023-07-09T00:43:30;6.70;;;3.17;;
21206;SDS011;10761;48.532;8.026;2023-07-09T00:47:09;6.57;;;3.58;;
21206;SDS011;10761;48.532;8.026;2023-07-09T00:49:36;3.88;;;3.15;;
21206;SDS011;10761;48.532;8.026;2023-07-09T00:54:53;5.07;;;3.13;;
21206;SDS011;10761;48.532;8.026;2023-07-09T00:57:20;5.57;;;3.05;;
21206;SDS011;10761;48.532;8.026;2023-07-09T00:59:49;6.75;;;3.67;;
21206;SDS011;10761;48.532;8.026;2023-07-09T01:02:18;7.18;;;3.30;;
21206;SDS011;10761;48.532;8.026;2023-07-09T01:04:48;6.07;;;3.20;;
21206;SDS011;10761;48.532;8.026;2023-07-09T01:07:17;6.55;;;3.15;;
21206;SDS011;10761;48.532;8.026;2023-07-09T01:09:44;6.28;;;3.40;;
21206;SDS011;10761;48.532;8.026;2023-07-09T01:12:10;4.38;;;2.95;;
21206;SDS011;10761;48.532;8.026;2023-07-09T01:14:37;7.07;;;3.53;;
21206;SDS011;10761;48.532;8.026;2023-07-09T01:17:04;6.22;;;3.30;;
21206;SDS011;10761;48.532;8.026;2023-07-09T01:19:36;4.95;;;3.30;;
21206;SDS011;10761;48.532;8.026;2023-07-09T01:22:08;4.75;;;3.22;;
21206;SDS011;10761;48.532;8.026;2023-07-09T01:30:04;7.65;;;3.42;;
21206;SDS011;10761;48.532;8.026;2023-07-09T01:32:32;5.72;;;3.55;;
21206;SDS011;10761;48.532;8.026;2023-07-09T01:34:59;6.10;;;3.42;;
21206;SDS011;10761;48.532;8.026;2023-07-09T01:37:30;4.63;;;3.35;;
21206;SDS011;10761;48.532;8.026;2023-07-09T01:39:57;5.00;;;3.83;;
21206;SDS011;10761;48.532;8.026;2023-07-09T01:42:25;5.95;;;3.85;;
21206;SDS011;10761;48.532;8.026;2023-07-09T01:44:52;7.70;;;3.20;;
21206;SDS011;10761;48.532;8.026;2023-07-09T01:47:18;7.03;;;3.17;;
21206;SDS011;10761;48.532;8.026;2023-07-09T01:49:44;7.93;;;3.42;;
21206;SDS011;10761;48.532;8.026;2023-07-09T01:52:13;8.43;;;3.00;;
21206;SDS011;10761;48.532;8.026;2023-07-09T01:54:41;4.97;;;3.28;;
21206;SDS011;10761;48.532;8.026;2023-07-09T01:57:19;5.20;;;3.30;;
21206;SDS011;10761;48.532;8.026;2023-07-09T01:59:48;4.07;;;3.03;;
21206;SDS011;10761;48.532;8.026;2023-07-09T02:02:21;8.30;;;3.50;;
21206;SDS011;10761;48.532;8.026;2023-07-09T02:04:47;4.80;;;3.45;;
21206;SDS011;10761;48.532;8.026;2023-07-09T02:07:15;6.75;;;3.45;;
21206;SDS011;10761;48.532;8.026;2023-07-09T02:09:41;6.97;;;3.45;;
21206;SDS011;10761;48.532;8.026;2023-07-09T02:12:07;6.47;;;3.53;;
21206;SDS011;10761;48.532;8.026;2023-07-09T02:14:34;6.80;;;3.83;;
21206;SDS011;10761;48.532;8.026;2023-07-09T02:17:00;5.82;;;3.33;;
21206;SDS011;10761;48.532;8.026;2023-07-09T02:19:25;5.78;;;3.72;;
21206;SDS011;10761;48.532;8.026;2023-07-09T02:21:52;7.63;;;3.50;;
21206;SDS011;10761;48.532;8.026;2023-07-09T02:24:18;4.60;;;3.20;;
21206;SDS011;10761;48.532;8.026;2023-07-09T02:26:44;4.75;;;3.30;;
21206;SDS011;10761;48.532;8.026;2023-07-09T02:29:10;5.40;;;3.67;;
21206;SDS011;10761;48.532;8.026;2023-07-09T02:31:35;6.28;;;3.95;;
21206;SDS011;10761;48.532;8.026;2023-07-09T02:34:01;5.72;;;3.60;;
21206;SDS011;10761;48.532;8.026;2023-07-09T02:36:28;6.88;;;3.50;;
21206;SDS011;10761;48.532;8.026;2023-07-09T02:38:53;5.95;;;3.63;;
21206;SDS011;10761;48.532;8.026;2023-07-09T02:41:19;5.93;;;3.40;;
21206;SDS011;10761;48.532;8.026;2023-07-09T02:43:44;5.55;;;3.92;;
21206;SDS011;10761;48.532;8.026;2023-07-09T02:46:10;6.63;;;3.55;;
21206;SDS011;10761;48.532;8.026;2023-07-09T02:48:35;4.32;;;3.45;;
21206;SDS011;10761;48.532;8.026;2023-07-09T02:51:01;4.50;;;3.30;;
21206;SDS011;10761;48.532;8.026;2023-07-09T02:53:27;5.88;;;3.45;;
21206;SDS011;10761;48.532;8.026;2023-07-09T02:55:53;5.88;;;4.00;;
21206;SDS011;10761;48.532;8.026;2023-07-09T02:58:18;5.43;;;3.55;;
21206;SDS011;10761;48.532;8.026;2023-07-09T03:00:44;4.90;;;3.80;;
21206;SDS011;10761;48.532;8.026;2023-07-09T03:03:16;5.47;;;3.90;;
21206;SDS011;10761;48.532;8.026;2023-07-09T03:05:44;4.78;;;3.72;;
21206;SDS011;10761;48.532;8.026;2023-07-09T03:08:10;5.22;;;3.20;;
21206;SDS011;10761;48.532;8.026;2023-07-09T03:10:36;6.03;;;3.70;;
21206;SDS011;10761;48.532;8.026;2023-07-09T03:13:01;5.75;;;4.07;;
21206;SDS011;10761;48.532;8.026;2023-07-09T03:15:27;5.80;;;3.38;;
21206;SDS011;10761;48.532;8.026;2023-07-09T03:17:52;6.63;;;3.90;;
21206;SDS011;10761;48.532;8.026;2023-07-09T03:20:18;6.25;;;4.20;;
21206;SDS011;10761;48.532;8.026;2023-07-09T03:22:43;5.70;;;4.10;;
21206;SDS011;10761;48.532;8.026;2023-07-09T03:25:09;4.82;;;3.80;;
21206;SDS011;10761;48.532;8.026;2023-07-09T03:27:35;7.35;;;3.95;;
21206;SDS011;10761;48.532;8.026;2023-07-09T03:30:00;9.68;;;4.20;;
21206;SDS011;10761;48.532;8.026;2023-07-09T03:32:26;8.93;;;4.10;;
21206;SDS011;10761;48.532;8.026;2023-07-09T03:34:51;8.45;;;3.95;;
21206;SDS011;10761;48.532;8.026;2023-07-09T03:37:18;4.85;;;3.63;;
21206;SDS011;10761;48.532;8.026;2023-07-09T03:39:47;6.72;;;4.10;;
21206;SDS011;10761;48.532;8.026;2023-07-09T03:42:12;7.53;;;4.22;;
21206;SDS011;10761;48.532;8.026;2023-07-09T03:44:38;10.45;;;3.97;;
21206;SDS011;10761;48.532;8.026;2023-07-09T03:47:05;6.25;;;3.95;;
21206;SDS011;10761;48.532;8.026;2023-07-09T03:49:31;4.35;;;3.55;;
21206;SDS011;10761;48.532;8.026;2023-07-09T03:51:57;7.28;;;3.70;;
21206;SDS011;10761;48.532;8.026;2023-07-09T03:54:22;5.05;;;3.65;;
21206;SDS011;10761;48.532;8.026;2023-07-09T03:56:48;5.10;;;3.58;;
21206;SDS011;10761;48.532;8.026;2023-07-09T03:59:14;6.63;;;4.10;;
21206;SDS011;10761;48.532;8.026;2023-07-09T04:01:39;5.22;;;4.07;;
21206;SDS011;10761;48.532;8.026;2023-07-09T04:04:09;5.60;;;3.67;;
21206;SDS011;10761;48.532;8.026;2023-07-09T04:06:34;6.22;;;4.18;;
21206;SDS011;10761;48.532;8.026;2023-07-09T04:09:00;6.72;;;4.20;;
21206;SDS011;10761;48.532;8.026;2023-07-09T04:11:25;8.30;;;4.00;;
21206;SDS011;10761;48.532;8.026;2023-07-09T04:13:51;5.65;;;4.05;;
21206;SDS011;10761;48.532;8.026;2023-07-09T04:16:16;7.65;;;3.97;;
21206;SDS011;10761;48.532;8.026;2023-07-09T04:18:42;4.63;;;3.70;;
21206;SDS011;10761;48.532;8.026;2023-07-09T04:21:08;5.43;;;3.90;;
21206;SDS011;10761;48.532;8.026;2023-07-09T04:23:33;8.02;;;4.35;;
21206;SDS011;10761;48.532;8.026;2023-07-09T04:25:59;8.88;;;4.05;;
21206;SDS011;10761;48.532;8.026;2023-07-09T04:28:27;6.45;;;4.05;;
21206;SDS011;10761;48.532;8.026;2023-07-09T04:30:55;5.25;;;4.05;;
21206;SDS011;10761;48.532;8.026;2023-07-09T04:33:21;6.00;;;4.15;;
21206;SDS011;10761;48.532;8.026;2023-07-09T04:35:47;6.38;;;3.85;;
21206;SDS011;10761;48.532;8.026;2023-07-09T04:38:13;4.25;;;3.42;;
21206;SDS011;10761;48.532;8.026;2023-07-09T04:40:39;6.85;;;3.95;;
21206;SDS011;10761;48.532;8.026;2023-07-09T04:43:06;5.05;;;3.53;;
21206;SDS011;10761;48.532;8.026;2023-07-09T04:45:31;9.30;;;3.90;;
21206;SDS011;10761;48.532;8.026;2023-07-09T04:47:57;5.20;;;3.70;;
21206;SDS011;10761;48.532;8.026;2023-07-09T04:50:23;6.50;;;4.03;;
21206;SDS011;10761;48.532;8.026;2023-07-09T04:52:49;9.30;;;4.00;;
21206;SDS011;10761;48.532;8.026;2023-07-09T04:55:14;9.38;;;3.90;;
21206;SDS011;10761;48.532;8.026;2023-07-09T04:57:40;4.50;;;3.97;;
21206;SDS011;10761;48.532;8.026;2023-07-09T05:00:06;8.27;;;4.20;;
21206;SDS011;10761;48.532;8.026;2023-07-09T05:02:32;6.95;;;3.88;;
21206;SDS011;10761;48.532;8.026;2023-07-09T05:04:58;5.05;;;3.80;;
21206;SDS011;10761;48.532;8.026;2023-07-09T05:07:24;5.18;;;3.83;;
21206;SDS011;10761;48.532;8.026;2023-07-09T05:09:50;7.03;;;3.90;;
21206;SDS011;10761;48.532;8.026;2023-07-09T05:12:16;8.65;;;3.80;;
21206;SDS011;10761;48.532;8.026;2023-07-09T05:14:41;9.20;;;3.88;;
21206;SDS011;10761;48.532;8.026;2023-07-09T05:17:07;8.07;;;4.22;;
21206;SDS011;10761;48.532;8.026;2023-07-09T05:19:36;5.70;;;3.95;;
21206;SDS011;10761;48.532;8.026;2023-07-09T05:22:01;6.05;;;3.90;;
21206;SDS011;10761;48.532;8.026;2023-07-09T05:24:27;7.47;;;4.13;;
21206;SDS011;10761;48.532;8.026;2023-07-09T05:26:53;7.53;;;3.65;;
21206;SDS011;10761;48.532;8.026;2023-07-09T05:29:19;7.38;;;4.22;;
21206;SDS011;10761;48.532;8.026;2023-07-09T05:31:44;6.38;;;4.20;;
21206;SDS011;10761;48.532;8.026;2023-07-09T05:34:10;5.75;;;3.88;;
21206;SDS011;10761;48.532;8.026;2023-07-09T05:36:35;10.48;;;3.75;;
21206;SDS011;10761;48.532;8.026;2023-07-09T05:39:01;7.82;;;4.43;;
21206;SDS011;10761;48.532;8.026;2023-07-09T05:41:26;4.95;;;3.88;;
21206;SDS011;10761;48.532;8.026;2023-07-09T05:43:52;9.65;;;4.28;;
21206;SDS011;10761;48.532;8.026;2023-07-09T05:46:18;5.78;;;4.10;;
21206;SDS011;10761;48.532;8.026;2023-07-09T05:48:44;6.43;;;4.40;;
21206;SDS011;10761;48.532;8.026;2023-07-09T05:51:10;5.88;;;4.10;;
21206;SDS011;10761;48.532;8.026;2023-07-09T05:53:35;8.25;;;4.03;;
21206;SDS011;10761;48.532;8.026;2023-07-09T05:56:01;6.78;;;4.05;;
21206;SDS011;10761;48.532;8.026;2023-07-09T05:58:26;6.18;;;4.38;;
21206;SDS011;10761;48.532;8.026;2023-07-09T06:00:52;8.35;;;4.45;;
21206;SDS011;10761;48.532;8.026;2023-07-09T06:03:22;9.10;;;4.20;;
21206;SDS011;10761;48.532;8.026;2023-07-09T06:05:49;4.90;;;3.80;;
21206;SDS011;10761;48.532;8.026;2023-07-09T06:08:15;7.75;;;4.07;;
21206;SDS011;10761;48.532;8.026;2023-07-09T06:10:56;9.40;;;3.95;;
21206;SDS011;10761;48.532;8.026;2023-07-09T06:13:26;6.10;;;3.88;;
21206;SDS011;10761;48.532;8.026;2023-07-09T06:15:54;6.60;;;4.22;;
21206;SDS011;10761;48.532;8.026;2023-07-09T06:18:20;8.73;;;4.10;;
21206;SDS011;10761;48.532;8.026;2023-07-09T06:20:48;10.77;;;4.57;;
21206;SDS011;10761;48.532;8.026;2023-07-09T06:23:17;10.50;;;4.00;;
21206;SDS011;10761;48.532;8.026;2023-07-09T06:25:44;6.25;;;4.45;;
21206;SDS011;10761;48.532;8.026;2023-07-09T06:28:17;6.72;;;4.32;;
21206;SDS011;10761;48.532;8.026;2023-07-09T06:30:45;6.45;;;4.45;;
21206;SDS011;10761;48.532;8.026;2023-07-09T06:33:12;7.65;;;4.65;;
21206;SDS011;10761;48.532;8.026;2023-07-09T06:35:45;8.82;;;4.60;;
21206;SDS011;10761;48.532;8.026;2023-07-09T06:38:11;6.30;;;4.60;;
21206;SDS011;10761;48.532;8.026;2023-07-09T06:40:37;7.25;;;4.78;;
21206;SDS011;10761;48.532;8.026;2023-07-09T06:43:02;9.20;;;4.72;;
21206;SDS011;10761;48.532;8.026;2023-07-09T06:45:28;7.75;;;4.70;;
21206;SDS011;10761;48.532;8.026;2023-07-09T06:47:54;7.30;;;4.35;;
21206;SDS011;10761;48.532;8.026;2023-07-09T06:50:19;7.38;;;4.55;;
21206;SDS011;10761;48.532;8.026;2023-07-09T06:52:45;6.43;;;4.20;;
21206;SDS011;10761;48.532;8.026;2023-07-09T06:55:11;6.93;;;4.30;;
21206;SDS011;10761;48.532;8.026;2023-07-09T06:57:37;6.32;;;4.47;;
21206;SDS011;10761;48.532;8.026;2023-07-09T07:00:03;8.80;;;4.55;;
21206;SDS011;10761;48.532;8.026;2023-07-09T07:02:29;7.57;;;4.47;;
21206;SDS011;10761;48.532;8.026;2023-07-09T07:04:55;7.18;;;4.50;;
21206;SDS011;10761;48.532;8.026;2023-07-09T07:07:20;5.90;;;4.43;;
21206;SDS011;10761;48.532;8.026;2023-07-09T07:09:47;6.20;;;3.88;;
21206;SDS011;10761;48.532;8.026;2023-07-09T07:12:19;7.47;;;4.30;;
21206;SDS011;10761;48.532;8.026;2023-07-09T07:14:50;7.97;;;3.97;;
21206;SDS011;10761;48.532;8.026;2023-07-09T07:17:16;7.30;;;4.38;;
21206;SDS011;10761;48.532;8.026;2023-07-09T07:19:41;6.80;;;4.07;;
21206;SDS011;10761;48.532;8.026;2023-07-09T07:22:07;8.63;;;3.95;;
21206;SDS011;10761;48.532;8.026;2023-07-09T07:24:33;8.38;;;4.25;;
21206;SDS011;10761;48.532;8.026;2023-07-09T07:26:58;6.25;;;4.20;;
21206;SDS011;10761;48.532;8.026;2023-07-09T07:29:24;6.78;;;3.90;;
21206;SDS011;10761;48.532;8.026;2023-07-09T07:31:49;8.30;;;4.05;;
21206;SDS011;10761;48.532;8.026;2023-07-09T07:34:15;4.35;;;3.92;;
21206;SDS011;10761;48.532;8.026;2023-07-09T07:36:41;7.03;;;4.30;;
21206;SDS011;10761;48.532;8.026;2023-07-09T07:39:06;7.55;;;3.90;;
21206;SDS011;10761;48.532;8.026;2023-07-09T07:41:32;5.15;;;3.88;;
21206;SDS011;10761;48.532;8.026;2023-07-09T07:43:57;9.05;;;4.30;;
21206;SDS011;10761;48.532;8.026;2023-07-09T07:46:23;7.20;;;4.20;;
21206;SDS011;10761;48.532;8.026;2023-07-09T07:48:49;6.28;;;4.28;;
21206;SDS011;10761;48.532;8.026;2023-07-09T07:51:14;9.55;;;4.20;;
21206;SDS011;10761;48.532;8.026;2023-07-09T07:53:40;6.13;;;4.00;;
21206;SDS011;10761;48.532;8.026;2023-07-09T07:56:05;10.35;;;4.45;;
21206;SDS011;10761;48.532;8.026;2023-07-09T07:58:32;6.85;;;4.10;;
21206;SDS011;10761;48.532;8.026;2023-07-09T08:00:57;7.18;;;4.05;;
21206;SDS011;10761;48.532;8.026;2023-07-09T08:03:23;5.25;;;4.10;;
21206;SDS011;10761;48.532;8.026;2023-07-09T08:05:49;5.72;;;3.80;;
21206;SDS011;10761;48.532;8.026;2023-07-09T08:08:15;10.60;;;4.55;;
21206;SDS011;10761;48.532;8.026;2023-07-09T08:10:41;10.60;;;4.30;;
21206;SDS011;10761;48.532;8.026;2023-07-09T08:13:06;8.57;;;4.45;;
21206;SDS011;10761;48.532;8.026;2023-07-09T08:15:32;5.45;;;4.28;;
21206;SDS011;10761;48.532;8.026;2023-07-09T08:17:58;7.38;;;4.10;;
21206;SDS011;10761;48.532;8.026;2023-07-09T08:20:23;6.28;;;4.70;;
21206;SDS011;10761;48.532;8.026;2023-07-09T08:22:49;9.27;;;4.05;;
21206;SDS011;10761;48.532;8.026;2023-07-09T08:25:15;10.93;;;4.45;;
21206;SDS011;10761;48.532;8.026;2023-07-09T08:27:40;6.45;;;4.60;;
21206;SDS011;10761;48.532;8.026;2023-07-09T08:30:06;5.47;;;4.45;;
21206;SDS011;10761;48.532;8.026;2023-07-09T08:32:32;11.65;;;4.57;;
21206;SDS011;10761;48.532;8.026;2023-07-09T08:34:58;7.95;;;4.40;;
21206;SDS011;10761;48.532;8.026;2023-07-09T08:37:23;7.22;;;4.60;;
21206;SDS011;10761;48.532;8.026;2023-07-09T08:39:49;7.10;;;3.78;;
21206;SDS011;10761;48.532;8.026;2023-07-09T08:42:17;7.78;;;4.00;;
21206;SDS011;10761;48.532;8.026;2023-07-09T08:45:03;5.95;;;4.20;;
21206;SDS011;10761;48.532;8.026;2023-07-09T08:47:47;8.25;;;4.70;;
21206;SDS011;10761;48.532;8.026;2023-07-09T08:50:32;9.90;;;4.25;;
21206;SDS011;10761;48.532;8.026;2023-07-09T08:53:18;5.65;;;3.75;;
21206;SDS011;10761;48.532;8.026;2023-07-09T08:55:47;8.38;;;4.28;;
21206;SDS011;10761;48.532;8.026;2023-07-09T08:58:23;7.03;;;4.00;;
21206;SDS011;10761;48.532;8.026;2023-07-09T09:00:57;6.93;;;4.30;;
21206;SDS011;10761;48.532;8.026;2023-07-09T09:03:37;8.15;;;4.20;;
21206;SDS011;10761;48.532;8.026;2023-07-09T09:06:10;5.10;;;3.95;;
21206;SDS011;10761;48.532;8.026;2023-07-09T09:08:44;5.25;;;3.75;;
21206;SDS011;10761;48.532;8.026;2023-07-09T09:11:49;7.70;;;4.28;;
21206;SDS011;10761;48.532;8.026;2023-07-09T09:14:30;9.32;;;4.40;;
21206;SDS011;10761;48.532;8.026;2023-07-09T09:17:02;10.18;;;4.30;;
21206;SDS011;10761;48.532;8.026;2023-07-09T09:19:37;7.45;;;3.95;;
21206;SDS011;10761;48.532;8.026;2023-07-09T09:22:08;7.55;;;4.28;;
21206;SDS011;10761;48.532;8.026;2023-07-09T09:24:53;7.95;;;4.30;;
21206;SDS011;10761;48.532;8.026;2023-07-09T09:27:36;5.78;;;4.13;;
21206;SDS011;10761;48.532;8.026;2023-07-09T09:30:03;8.88;;;3.90;;
21206;SDS011;10761;48.532;8.026;2023-07-09T09:32:31;10.68;;;4.40;;
21206;SDS011;10761;48.532;8.026;2023-07-09T09:35:11;7.00;;;3.92;;
21206;SDS011;10761;48.532;8.026;2023-07-09T09:37:52;8.05;;;4.65;;
21206;SDS011;10761;48.532;8.026;2023-07-09T09:40:20;8.18;;;4.07;;
21206;SDS011;10761;48.532;8.026;2023-07-09T09:42:48;6.28;;;4.30;;
21206;SDS011;10761;48.532;8.026;2023-07-09T09:45:16;6.13;;;3.75;;
21206;SDS011;10761;48.532;8.026;2023-07-09T09:47:44;6.32;;;4.00;;
21206;SDS011;10761;48.532;8.026;2023-07-09T09:50:16;6.63;;;4.25;;
21206;SDS011;10761;48.532;8.026;2023-07-09T09:52:44;5.90;;;4.35;;
21206;SDS011;10761;48.532;8.026;2023-07-09T09:55:16;8.70;;;3.95;;
21206;SDS011;10761;48.532;8.026;2023-07-09T09:57:51;8.27;;;3.92;;
21206;SDS011;10761;48.532;8.026;2023-07-09T10:00:18;7.90;;;3.90;;
21206;SDS011;10761;48.532;8.026;2023-07-09T10:02:47;8.82;;;4.00;;
21206;SDS011;10761;48.532;8.026;2023-07-09T10:05:13;11.13;;;3.83;;
21206;SDS011;10761;48.532;8.026;2023-07-09T10:07:43;8.77;;;3.75;;
21206;SDS011;10761;48.532;8.026;2023-07-09T10:10:18;11.20;;;5.03;;
21206;SDS011;10761;48.532;8.026;2023-07-09T10:12:51;6.72;;;3.60;;
21206;SDS011;10761;48.532;8.026;2023-07-09T10:23:39;6.07;;;3.43;;
21206;SDS011;10761;48.532;8.026;2023-07-09T10:26:22;5.95;;;3.70;;
21206;SDS011;10761;48.532;8.026;2023-07-09T10:34:43;5.85;;;3.70;;
21206;SDS011;10761;48.532;8.026;2023-07-09T10:39:38;4.80;;;3.40;;
21206;SDS011;10761;48.532;8.026;2023-07-09T10:42:20;6.00;;;3.60;;
21206;SDS011;10761;48.532;8.026;2023-07-09T10:44:49;6.15;;;3.90;;
21206;SDS011;10761;48.532;8.026;2023-07-09T10:50:00;5.00;;;3.80;;
21206;SDS011;10761;48.532;8.026;2023-07-09T10:52:35;4.63;;;3.45;;
21206;SDS011;10761;48.532;8.026;2023-07-09T10:57:59;6.25;;;3.40;;
21206;SDS011;10761;48.532;8.026;2023-07-09T11:00:34;8.05;;;3.70;;
21206;SDS011;10761;48.532;8.026;2023-07-09T11:03:47;5.53;;;3.63;;
21206;SDS011;10761;48.532;8.026;2023-07-09T11:05:53;8.05;;;3.38;;
21206;SDS011;10761;48.532;8.026;2023-07-09T11:08:24;6.32;;;3.40;;
21206;SDS011;10761;48.532;8.026;2023-07-09T11:10:56;6.10;;;3.70;;
21206;SDS011;10761;48.532;8.026;2023-07-09T11:13:42;5.22;;;3.47;;
21206;SDS011;10761;48.532;8.026;2023-07-09T11:16:14;8.02;;;3.40;;
21206;SDS011;10761;48.532;8.026;2023-07-09T11:18:55;5.45;;;3.50;;
21206;SDS011;10761;48.532;8.026;2023-07-09T11:21:23;6.55;;;3.72;;
21206;SDS011;10761;48.532;8.026;2023-07-09T11:23:50;6.15;;;3.40;;
21206;SDS011;10761;48.532;8.026;2023-07-09T11:26:29;3.90;;;2.97;;
21206;SDS011;10761;48.532;8.026;2023-07-09T11:29:09;6.55;;;3.70;;
21206;SDS011;10761;48.532;8.026;2023-07-09T11:31:41;7.15;;;3.83;;
21206;SDS011;10761;48.532;8.026;2023-07-09T11:39:21;7.88;;;3.55;;
21206;SDS011;10761;48.532;8.026;2023-07-09T11:41:55;10.63;;;4.03;;
21206;SDS011;10761;48.532;8.026;2023-07-09T11:44:22;9.32;;;3.92;;
21206;SDS011;10761;48.532;8.026;2023-07-09T11:50:27;5.10;;;3.45;;
21206;SDS011;10761;48.532;8.026;2023-07-09T11:52:55;5.75;;;3.50;;
21206;SDS011;10761;48.532;8.026;2023-07-09T11:55:31;8.88;;;3.65;;
21206;SDS011;10761;48.532;8.026;2023-07-09T11:58:06;8.43;;;3.55;;
21206;SDS011;10761;48.532;8.026;2023-07-09T12:00:42;11.25;;;3.90;;
21206;SDS011;10761;48.532;8.026;2023-07-09T12:03:24;5.50;;;3.50;;
21206;SDS011;10761;48.532;8.026;2023-07-09T12:06:05;6.28;;;3.58;;
21206;SDS011;10761;48.532;8.026;2023-07-09T12:08:42;6.18;;;3.60;;
21206;SDS011;10761;48.532;8.026;2023-07-09T12:13:46;6.55;;;3.33;;
21206;SDS011;10761;48.532;8.026;2023-07-09T12:16:45;6.63;;;3.83;;
21206;SDS011;10761;48.532;8.026;2023-07-09T12:19:08;5.53;;;3.60;;
21206;SDS011;10761;48.532;8.026;2023-07-09T12:21:37;4.15;;;3.38;;
21206;SDS011;10761;48.532;8.026;2023-07-09T12:24:13;6.25;;;3.40;;
21206;SDS011;10761;48.532;8.026;2023-07-09T12:26:47;6.40;;;3.63;;
21206;SDS011;10761;48.532;8.026;2023-07-09T12:29:14;8.48;;;3.80;;
21206;SDS011;10761;48.532;8.026;2023-07-09T12:31:40;6.60;;;3.53;;
21206;SDS011;10761;48.532;8.026;2023-07-09T12:34:05;6.47;;;3.55;;
21206;SDS011;10761;48.532;8.026;2023-07-09T12:36:36;5.15;;;3.85;;
21206;SDS011;10761;48.532;8.026;2023-07-09T12:39:04;5.68;;;3.60;;
21206;SDS011;10761;48.532;8.026;2023-07-09T12:41:35;6.28;;;3.70;;
21206;SDS011;10761;48.532;8.026;2023-07-09T12:44:04;6.45;;;3.55;;
21206;SDS011;10761;48.532;8.026;2023-07-09T12:46:30;7.43;;;4.15;;
21206;SDS011;10761;48.532;8.026;2023-07-09T12:48:56;7.88;;;3.35;;
21206;SDS011;10761;48.532;8.026;2023-07-09T12:51:28;6.97;;;3.63;;
21206;SDS011;10761;48.532;8.026;2023-07-09T12:54:02;6.18;;;4.07;;
21206;SDS011;10761;48.532;8.026;2023-07-09T12:56:28;5.38;;;3.88;;
21206;SDS011;10761;48.532;8.026;2023-07-09T12:58:56;5.95;;;3.78;;
21206;SDS011;10761;48.532;8.026;2023-07-09T13:01:22;9.40;;;3.60;;
21206;SDS011;10761;48.532;8.026;2023-07-09T13:03:54;6.22;;;3.65;;
21206;SDS011;10761;48.532;8.026;2023-07-09T13:06:35;5.07;;;3.40;;
21206;SDS011;10761;48.532;8.026;2023-07-09T13:09:01;9.60;;;3.85;;
21206;SDS011;10761;48.532;8.026;2023-07-09T13:11:44;8.15;;;3.78;;
21206;SDS011;10761;48.532;8.026;2023-07-09T13:14:16;6.35;;;3.80;;
21206;SDS011;10761;48.532;8.026;2023-07-09T13:16:45;6.10;;;3.80;;
21206;SDS011;10761;48.532;8.026;2023-07-09T13:19:10;6.53;;;3.67;;
21206;SDS011;10761;48.532;8.026;2023-07-09T13:21:37;5.97;;;3.90;;
21206;SDS011;10761;48.532;8.026;2023-07-09T13:24:25;5.50;;;3.58;;
21206;SDS011;10761;48.532;8.026;2023-07-09T13:26:52;5.68;;;3.90;;
21206;SDS011;10761;48.532;8.026;2023-07-09T13:29:18;5.00;;;3.80;;
21206;SDS011;10761;48.532;8.026;2023-07-09T13:31:45;6.93;;;3.88;;
21206;SDS011;10761;48.532;8.026;2023-07-09T13:34:45;5.88;;;3.92;;
21206;SDS011;10761;48.532;8.026;2023-07-09T13:37:05;5.45;;;3.58;;
21206;SDS011;10761;48.532;8.026;2023-07-09T13:39:36;6.30;;;3.70;;
21206;SDS011;10761;48.532;8.026;2023-07-09T13:42:02;6.30;;;3.60;;
21206;SDS011;10761;48.532;8.026;2023-07-09T13:44:30;5.63;;;3.88;;
21206;SDS011;10761;48.532;8.026;2023-07-09T13:46:56;5.05;;;3.70;;
21206;SDS011;10761;48.532;8.026;2023-07-09T13:49:23;8.60;;;4.38;;
21206;SDS011;10761;48.532;8.026;2023-07-09T13:51:51;5.07;;;3.55;;
21206;SDS011;10761;48.532;8.026;2023-07-09T13:56:56;5.80;;;3.50;;
21206;SDS011;10761;48.532;8.026;2023-07-09T13:59:23;5.40;;;3.05;;
21206;SDS011;10761;48.532;8.026;2023-07-09T14:01:51;10.60;;;4.28;;
21206;SDS011;10761;48.532;8.026;2023-07-09T14:04:19;5.72;;;3.63;;
21206;SDS011;10761;48.532;8.026;2023-07-09T14:06:45;5.55;;;3.70;;
21206;SDS011;10761;48.532;8.026;2023-07-09T14:09:12;10.98;;;3.63;;
21206;SDS011;10761;48.532;8.026;2023-07-09T14:11:43;9.25;;;3.60;;
21206;SDS011;10761;48.532;8.026;2023-07-09T14:14:20;6.25;;;3.50;;
21206;SDS011;10761;48.532;8.026;2023-07-09T14:16:49;7.75;;;3.80;;
21206;SDS011;10761;48.532;8.026;2023-07-09T14:19:17;6.70;;;3.90;;
21206;SDS011;10761;48.532;8.026;2023-07-09T14:21:47;10.88;;;3.90;;
21206;SDS011;10761;48.532;8.026;2023-07-09T14:24:18;7.18;;;3.72;;
21206;SDS011;10761;48.532;8.026;2023-07-09T14:26:46;8.32;;;3.72;;
21206;SDS011;10761;48.532;8.026;2023-07-09T14:29:13;4.28;;;3.75;;
21206;SDS011;10761;48.532;8.026;2023-07-09T14:31:39;8.50;;;4.05;;
21206;SDS011;10761;48.532;8.026;2023-07-09T14:36:51;7.32;;;3.53;;
21206;SDS011;10761;48.532;8.026;2023-07-09T14:39:18;6.35;;;3.80;;
21206;SDS011;10761;48.532;8.026;2023-07-09T14:41:44;5.10;;;3.47;;
21206;SDS011;10761;48.532;8.026;2023-07-09T14:46:53;7.07;;;3.90;;
21206;SDS011;10761;48.532;8.026;2023-07-09T14:49:20;11.48;;;3.83;;
21206;SDS011;10761;48.532;8.026;2023-07-09T14:51:46;7.28;;;3.50;;
21206;SDS011;10761;48.532;8.026;2023-07-09T14:54:23;4.85;;;3.80;;
21206;SDS011;10761;48.532;8.026;2023-07-09T14:56:53;6.53;;;3.78;;
21206;SDS011;10761;48.532;8.026;2023-07-09T14:59:20;8.02;;;4.22;;
21206;SDS011;10761;48.532;8.026;2023-07-09T15:01:46;11.43;;;3.72;;
21206;SDS011;10761;48.532;8.026;2023-07-09T15:04:22;5.78;;;3.50;;
21206;SDS011;10761;48.532;8.026;2023-07-09T15:06:53;9.02;;;4.68;;
21206;SDS011;10761;48.532;8.026;2023-07-09T15:09:23;7.03;;;3.88;;
21206;SDS011;10761;48.532;8.026;2023-07-09T15:11:51;6.35;;;3.90;;
21206;SDS011;10761;48.532;8.026;2023-07-09T15:14:18;8.80;;;3.80;;
21206;SDS011;10761;48.532;8.026;2023-07-09T15:16:46;6.75;;;3.90;;
21206;SDS011;10761;48.532;8.026;2023-07-09T15:19:16;12.05;;;4.10;;
21206;SDS011;10761;48.532;8.026;2023-07-09T15:21:43;7.53;;;4.25;;
21206;SDS011;10761;48.532;8.026;2023-07-09T15:24:14;7.03;;;3.53;;
21206;SDS011;10761;48.532;8.026;2023-07-09T15:26:51;7.65;;;4.28;;
21206;SDS011;10761;48.532;8.026;2023-07-09T15:29:19;13.02;;;4.28;;
21206;SDS011;10761;48.532;8.026;2023-07-09T15:31:45;7.90;;;4.47;;
21206;SDS011;10761;48.532;8.026;2023-07-09T15:34:11;8.82;;;4.00;;
21206;SDS011;10761;48.532;8.026;2023-07-09T15:36:41;8.45;;;4.00;;
21206;SDS011;10761;48.532;8.026;2023-07-09T15:39:10;5.70;;;3.85;;
21206;SDS011;10761;48.532;8.026;2023-07-09T15:41:37;5.88;;;4.00;;
21206;SDS011;10761;48.532;8.026;2023-07-09T15:44:03;9.80;;;4.53;;
21206;SDS011;10761;48.532;8.026;2023-07-09T15:46:29;6.53;;;4.20;;
21206;SDS011;10761;48.532;8.026;2023-07-09T15:48:55;7.05;;;4.22;;